createdAt,value
2019-04-14T00:00:45.470Z,19.32
2019-04-14T00:03:34.726Z,20.15
2019-04-14T00:06:06.966Z,17.90
2019-04-14T00:08:37.254Z,18.80
2019-04-14T00:11:08.496Z,19.48
2019-04-14T00:13:39.249Z,19.70
2019-04-14T00:16:09.603Z,21.50
2019-04-14T00:18:40.499Z,20.85
2019-04-14T00:21:10.902Z,19.30
2019-04-14T00:23:42.069Z,19.95
2019-04-14T00:26:31.919Z,19.65
2019-04-14T00:29:02.668Z,19.57
2019-04-14T00:31:33.426Z,20.35
2019-04-14T00:34:07.472Z,21.10
2019-04-14T00:36:59.399Z,20.12
2019-04-14T00:39:33.836Z,20.02
2019-04-14T00:42:14.816Z,22.17
2019-04-14T00:44:51.814Z,19.92
2019-04-14T00:47:25.186Z,20.80
2019-04-14T00:49:55.433Z,22.02
2019-04-14T00:52:27.506Z,20.25
2019-04-14T00:54:58.733Z,21.52
2019-04-14T00:57:29.093Z,21.35
2019-04-14T00:59:59.603Z,21.33
2019-04-14T01:02:29.746Z,21.25
2019-04-14T01:05:00.134Z,21.23
2019-04-14T01:07:30.550Z,20.30
2019-04-14T01:10:01.821Z,21.30
2019-04-14T01:12:32.153Z,20.37
2019-04-14T01:15:03.082Z,21.23
2019-04-14T01:17:35.242Z,20.08
2019-04-14T01:20:05.790Z,21.80
2019-04-14T01:22:35.938Z,19.32
2019-04-14T01:25:08.465Z,19.80
2019-04-14T01:27:39.212Z,18.98
2019-04-14T01:30:11.079Z,19.75
2019-04-14T01:32:41.559Z,20.00
2019-04-14T01:35:12.033Z,18.62
2019-04-14T01:37:41.972Z,19.95
2019-04-14T01:40:12.191Z,20.32
2019-04-14T01:42:42.367Z,18.07
2019-04-14T01:45:14.503Z,19.20
2019-04-14T01:47:44.692Z,19.50
2019-04-14T01:50:15.621Z,18.35
2019-04-14T01:52:57.409Z,19.25
2019-04-14T01:55:52.756Z,18.60
2019-04-14T01:58:27.779Z,19.70
2019-04-14T02:01:14.981Z,18.52
2019-04-14T02:03:47.671Z,19.20
2019-04-14T02:06:20.320Z,20.15
2019-04-14T02:08:52.215Z,17.75
2019-04-14T02:11:24.784Z,18.23
2019-04-14T02:13:57.216Z,17.20
2019-04-14T02:16:34.831Z,17.60
2019-04-14T02:19:00.346Z,16.85
2019-04-14T02:21:30.750Z,16.35
2019-04-14T02:24:00.571Z,17.50
2019-04-14T02:26:31.072Z,18.07
2019-04-14T02:29:01.444Z,17.60
2019-04-14T02:31:53.459Z,17.85
2019-04-14T02:34:34.715Z,17.27
2019-04-14T02:37:05.353Z,16.65
2019-04-14T02:39:48.513Z,18.77
2019-04-14T02:44:46.123Z,19.10
2019-04-14T02:47:36.400Z,17.10
2019-04-14T02:49:49.436Z,18.25
2019-04-14T02:52:20.670Z,16.05
2019-04-14T02:54:51.674Z,17.57
2019-04-14T02:57:23.090Z,17.92
2019-04-14T02:59:50.693Z,16.10
2019-04-14T03:02:30.361Z,17.50
2019-04-14T03:05:02.464Z,16.15
2019-04-14T03:10:16.315Z,17.65
2019-04-14T03:15:01.311Z,17.32
2019-04-14T03:17:58.248Z,16.32
2019-04-14T03:25:44.195Z,15.95
2019-04-14T03:34:08.254Z,14.43
2019-04-14T03:36:44.201Z,16.07
2019-04-14T03:41:25.903Z,14.68
2019-04-14T03:43:41.004Z,14.07
2019-04-14T03:46:25.563Z,15.15
2019-04-14T03:51:31.442Z,14.15
2019-04-14T03:53:51.963Z,14.98
2019-04-14T03:56:38.363Z,14.20
2019-04-14T03:59:08.497Z,13.18
2019-04-14T04:01:39.157Z,14.33
2019-04-14T04:04:11.907Z,14.93
2019-04-14T04:06:42.455Z,14.35
2019-04-14T04:09:12.792Z,14.38
2019-04-14T04:11:43.476Z,14.05
2019-04-14T04:14:13.967Z,14.78
2019-04-14T04:17:18.964Z,19.25
2019-04-14T04:19:57.741Z,13.90
2019-04-14T04:23:00.853Z,14.07
2019-04-14T04:26:02.466Z,13.88
2019-04-14T04:28:54.451Z,20.75
2019-04-14T04:31:50.601Z,15.35
2019-04-14T04:34:29.433Z,12.47
2019-04-14T04:37:25.674Z,14.38
2019-04-14T04:39:56.197Z,13.68
2019-04-14T04:42:26.569Z,14.50
2019-04-14T04:44:57.446Z,13.13
2019-04-14T04:47:28.009Z,13.40
2019-04-14T04:49:57.999Z,14.25
2019-04-14T04:52:28.134Z,14.40
2019-04-14T04:54:58.314Z,13.90
2019-04-14T04:57:28.604Z,13.80
2019-04-14T04:59:58.450Z,12.80
2019-04-14T05:02:28.776Z,13.28
2019-04-14T05:04:59.140Z,15.20
2019-04-14T05:07:29.550Z,13.72
2019-04-14T05:10:19.553Z,11.85
2019-04-14T05:13:05.273Z,13.08
2019-04-14T05:15:48.902Z,13.45
2019-04-14T05:18:24.665Z,12.40
2019-04-14T05:20:55.464Z,13.43
2019-04-14T05:23:26.048Z,13.90
2019-04-14T05:25:56.324Z,12.70
2019-04-14T05:28:26.799Z,13.45
2019-04-14T05:30:57.009Z,13.40
2019-04-14T05:33:27.193Z,12.88
2019-04-14T05:35:59.984Z,16.10
2019-04-14T05:38:32.232Z,11.90
2019-04-14T05:41:02.705Z,12.03
2019-04-14T05:43:41.558Z,11.15
2019-04-14T05:46:05.604Z,13.03
2019-04-14T05:48:35.792Z,12.75
2019-04-14T05:51:06.464Z,12.18
2019-04-14T05:53:37.239Z,12.30
2019-04-14T05:56:08.024Z,11.97
2019-04-14T05:58:38.717Z,14.58
2019-04-14T06:01:11.318Z,12.65
2019-04-14T06:03:41.530Z,11.43
2019-04-14T06:06:11.713Z,11.18
2019-04-14T06:08:41.596Z,11.43
2019-04-14T06:11:11.940Z,11.38
2019-04-14T06:13:42.818Z,12.05
2019-04-14T06:16:12.648Z,11.57
2019-04-14T06:18:42.734Z,12.07
2019-04-14T06:21:12.578Z,12.70
2019-04-14T06:23:42.615Z,12.28
2019-04-14T06:26:12.932Z,11.30
2019-04-14T06:28:43.293Z,11.25
2019-04-14T06:31:30.665Z,17.50
2019-04-14T06:34:17.483Z,11.78
2019-04-14T06:37:04.893Z,12.05
2019-04-14T06:39:42.004Z,10.90
2019-04-14T06:42:11.970Z,11.68
2019-04-14T06:44:42.517Z,12.37
2019-04-14T06:47:12.862Z,11.18
2019-04-14T06:49:48.749Z,11.55
2019-04-14T06:52:14.376Z,12.20
2019-04-14T06:54:44.477Z,11.30
2019-04-14T06:57:14.329Z,10.93
2019-04-14T06:59:44.470Z,10.50
2019-04-14T07:02:14.900Z,11.20
2019-04-14T07:04:45.558Z,11.53
2019-04-14T07:07:15.404Z,11.77
2019-04-14T07:09:45.795Z,11.07
2019-04-14T07:12:16.248Z,11.20
2019-04-14T07:14:46.457Z,16.40
2019-04-14T07:17:16.726Z,21.90
2019-04-14T07:19:47.434Z,37.60
2019-04-14T07:22:17.629Z,11.60
2019-04-14T07:24:48.232Z,27.90
2019-04-14T07:27:18.079Z,20.77
2019-04-14T07:29:53.559Z,15.63
2019-04-14T07:32:45.889Z,29.83
2019-04-14T07:35:37.567Z,15.33
2019-04-14T07:38:29.507Z,26.13
2019-04-14T07:41:27.733Z,11.23
2019-04-14T07:44:19.830Z,14.70
2019-04-14T07:51:52.689Z,19.20
2019-04-14T07:58:24.541Z,13.37
2019-04-14T08:05:45.124Z,20.40
2019-04-14T08:09:24.513Z,14.27
2019-04-14T08:11:55.281Z,11.10
2019-04-14T08:14:25.728Z,13.90
2019-04-14T08:16:56.828Z,17.63
2019-04-14T08:19:33.540Z,17.20
2019-04-14T08:22:03.054Z,13.23
2019-04-14T08:24:33.249Z,13.00
2019-04-14T08:27:03.685Z,13.30
2019-04-14T08:29:36.966Z,17.60
2019-04-14T08:32:07.684Z,14.27
2019-04-14T08:34:38.421Z,29.40
2019-04-14T08:37:08.690Z,15.97
2019-04-14T08:39:40.187Z,18.67
2019-04-14T08:42:30.038Z,20.77
2019-04-14T08:45:06.863Z,18.83
2019-04-14T08:47:50.178Z,17.33
2019-04-14T08:50:39.569Z,12.03
2019-04-14T08:53:23.717Z,15.07
2019-04-14T08:56:17.283Z,15.17
2019-04-14T08:59:13.884Z,14.30
2019-04-14T09:02:05.126Z,15.63
2019-04-14T09:04:44.734Z,15.30
2019-04-14T09:07:27.288Z,15.93
2019-04-14T09:10:07.142Z,22.40
2019-04-14T09:12:42.779Z,14.80
2019-04-14T09:15:13.262Z,14.83
2019-04-14T09:17:44.221Z,15.33
2019-04-14T09:20:15.707Z,15.93
2019-04-14T09:22:45.601Z,16.00
2019-04-14T09:25:16.003Z,17.60
2019-04-14T09:27:45.899Z,24.50
2019-04-14T09:30:16.568Z,17.00
2019-04-14T09:32:46.684Z,18.20
2019-04-14T09:35:16.543Z,22.50
2019-04-14T09:37:46.519Z,17.33
2019-04-14T09:40:16.743Z,18.03
2019-04-14T09:42:46.584Z,25.00
2019-04-14T09:45:16.502Z,27.40
2019-04-14T09:47:47.069Z,22.30
2019-04-14T09:50:16.975Z,29.77
2019-04-14T09:52:46.906Z,23.90
2019-04-14T09:55:17.165Z,26.40
2019-04-14T09:57:47.198Z,21.93
2019-04-14T10:00:17.462Z,28.50
2019-04-14T10:02:47.645Z,22.80
2019-04-14T10:05:17.740Z,18.10
2019-04-14T10:07:47.596Z,21.97
2019-04-14T10:10:20.493Z,22.80
2019-04-14T10:12:51.670Z,20.73
2019-04-14T10:15:22.433Z,19.60
2019-04-14T10:17:52.935Z,21.07
2019-04-14T10:20:23.660Z,22.60
2019-04-14T10:22:53.648Z,19.03
2019-04-14T10:25:24.738Z,17.63
2019-04-14T10:27:55.878Z,18.40
2019-04-14T10:30:25.796Z,18.73
2019-04-14T10:32:57.808Z,18.60
2019-04-14T10:35:27.754Z,17.77
2019-04-14T10:37:58.518Z,18.87
2019-04-14T10:40:29.774Z,17.73
2019-04-14T10:43:01.015Z,19.23
2019-04-14T10:45:31.403Z,17.77
2019-04-14T10:48:03.845Z,22.17
2019-04-14T10:50:34.009Z,19.17
2019-04-14T10:53:04.561Z,21.17
2019-04-14T10:55:34.945Z,17.97
2019-04-14T10:58:08.542Z,19.30
2019-04-14T11:00:39.279Z,17.60
2019-04-14T11:03:09.283Z,18.40
2019-04-14T11:05:47.805Z,17.83
2019-04-14T11:08:18.578Z,18.83
2019-04-14T11:10:49.205Z,16.63
2019-04-14T11:13:19.576Z,17.30
2019-04-14T11:15:50.022Z,17.10
2019-04-14T11:18:21.443Z,17.40
2019-04-14T11:20:51.403Z,16.40
2019-04-14T11:23:21.713Z,15.10
2019-04-14T11:25:54.497Z,18.43
2019-04-14T11:28:25.154Z,17.10
2019-04-14T11:30:56.754Z,14.97
2019-04-14T11:33:58.305Z,14.47
2019-04-14T11:36:47.434Z,14.67
2019-04-14T11:39:18.420Z,11.50
2019-04-14T11:41:56.001Z,10.77
2019-04-14T11:44:27.222Z,10.73
2019-04-14T11:46:57.615Z,10.03
2019-04-14T11:49:28.443Z,10.13
2019-04-14T11:51:58.913Z,10.17
2019-04-14T11:54:30.036Z,10.63
2019-04-14T11:57:00.555Z,10.07
2019-04-14T11:59:39.632Z,9.50
2019-04-14T12:02:17.513Z,9.60
2019-04-14T12:04:55.614Z,9.10
2019-04-14T12:07:43.827Z,8.00
2019-04-14T12:10:18.181Z,8.57
2019-04-14T12:12:53.624Z,7.40
2019-04-14T12:15:25.573Z,8.20
2019-04-14T12:17:56.321Z,6.90
2019-04-14T12:20:26.416Z,6.90
2019-04-14T12:23:02.005Z,8.40
2019-04-14T12:25:33.590Z,6.80
2019-04-14T12:28:07.541Z,6.50
2019-04-14T12:30:39.905Z,6.10
2019-04-14T12:33:11.465Z,6.53
2019-04-14T12:35:42.319Z,6.27
2019-04-14T12:38:14.123Z,6.23
2019-04-14T12:40:45.245Z,5.57
2019-04-14T12:43:37.696Z,4.57
2019-04-14T12:46:33.911Z,5.10
2019-04-14T12:49:23.810Z,4.43
2019-04-14T12:52:21.072Z,4.20
2019-04-14T12:54:43.614Z,4.20
2019-04-14T12:57:14.414Z,3.97
2019-04-14T12:59:44.470Z,4.67
2019-04-14T13:02:20.629Z,4.90
2019-04-14T13:04:50.655Z,4.67
2019-04-14T13:07:21.100Z,4.90
2019-04-14T13:09:51.260Z,4.40
2019-04-14T13:12:21.866Z,3.47
2019-04-14T13:14:55.293Z,3.43
2019-04-14T13:17:26.455Z,3.57
2019-04-14T13:19:57.431Z,2.87
2019-04-14T13:22:33.842Z,2.63
2019-04-14T13:24:59.824Z,4.30
2019-04-14T13:27:29.714Z,3.70
2019-04-14T13:30:01.934Z,3.30
2019-04-14T13:32:36.185Z,3.30
2019-04-14T13:35:09.963Z,6.40
2019-04-14T13:37:42.115Z,5.47
2019-04-14T13:40:12.666Z,3.33
2019-04-14T13:42:42.721Z,4.00
2019-04-14T13:45:24.062Z,2.97
2019-04-14T13:47:54.660Z,3.63
2019-04-14T13:50:26.277Z,3.73
2019-04-14T13:52:56.103Z,3.67
2019-04-14T13:55:26.029Z,3.40
2019-04-14T13:57:57.112Z,3.53
2019-04-14T14:00:27.733Z,3.80
2019-04-14T14:02:58.245Z,3.23
2019-04-14T14:05:29.088Z,3.10
2019-04-14T14:07:59.211Z,3.30
2019-04-14T14:10:31.310Z,2.93
2019-04-14T14:13:23.898Z,3.13
2019-04-14T14:16:30.890Z,3.57
2019-04-14T14:19:08.754Z,3.60
2019-04-14T14:21:46.578Z,3.53
2019-04-14T14:24:31.657Z,2.93
2019-04-14T14:27:05.419Z,2.57
2019-04-14T14:29:35.958Z,3.07
2019-04-14T14:32:16.896Z,3.00
2019-04-14T14:34:47.330Z,3.20
2019-04-14T14:37:17.565Z,3.07
2019-04-14T14:39:47.812Z,3.60
2019-04-14T14:42:20.172Z,4.07
2019-04-14T14:44:56.783Z,3.73
2019-04-14T14:47:29.443Z,3.67
2019-04-14T14:50:27.799Z,3.13
2019-04-14T14:52:57.868Z,3.50
2019-04-14T14:55:28.456Z,3.37
2019-04-14T14:57:58.614Z,2.77
2019-04-14T15:00:35.191Z,2.93
2019-04-14T15:03:06.173Z,2.77
2019-04-14T15:05:41.545Z,3.70
2019-04-14T15:08:11.693Z,3.20
2019-04-14T15:10:43.418Z,3.33
2019-04-14T15:13:17.270Z,3.10
2019-04-14T15:15:47.881Z,2.70
2019-04-14T15:18:19.005Z,3.23
2019-04-14T15:20:52.089Z,3.37
2019-04-14T15:23:25.366Z,3.43
2019-04-14T15:25:58.149Z,3.83
2019-04-14T15:28:31.211Z,4.00
2019-04-14T15:31:01.518Z,5.07
2019-04-14T15:33:37.165Z,5.37
2019-04-14T15:36:11.184Z,6.67
2019-04-14T15:38:45.585Z,6.30
2019-04-14T15:41:18.390Z,6.83
2019-04-14T15:43:48.626Z,6.23
2019-04-14T15:46:18.915Z,5.90
2019-04-14T15:48:50.055Z,6.47
2019-04-14T15:51:20.345Z,5.60
2019-04-14T15:53:50.800Z,5.87
2019-04-14T15:56:48.825Z,6.70
2019-04-14T15:59:40.820Z,6.80
2019-04-14T16:02:32.863Z,7.10
2019-04-14T16:05:12.688Z,7.50
2019-04-14T16:08:07.361Z,9.23
2019-04-14T16:10:42.518Z,9.60
2019-04-14T16:13:16.871Z,10.23
2019-04-14T16:15:59.160Z,10.80
2019-04-14T16:18:44.845Z,10.03
2019-04-14T16:21:15.150Z,11.13
2019-04-14T16:23:50.641Z,11.00
2019-04-14T16:26:25.792Z,11.50
2019-04-14T16:29:13.486Z,10.10
2019-04-14T16:32:00.783Z,12.03
2019-04-14T16:34:43.106Z,12.10
2019-04-14T16:37:13.343Z,10.33
2019-04-14T16:39:43.686Z,10.63
2019-04-14T16:42:13.827Z,10.30
2019-04-14T16:44:43.945Z,10.53
2019-04-14T16:47:14.329Z,10.83
2019-04-14T16:49:44.311Z,10.00
2019-04-14T16:52:37.280Z,10.57
2019-04-14T16:55:30.071Z,11.20
2019-04-14T16:58:35.184Z,10.07
2019-04-14T17:01:10.348Z,10.83
2019-04-14T17:03:44.179Z,9.97
2019-04-14T17:06:15.514Z,11.23
2019-04-14T17:08:48.159Z,11.00
2019-04-14T17:11:21.254Z,11.10
2019-04-14T17:14:12.185Z,12.07
2019-04-14T17:17:04.379Z,10.80
2019-04-14T17:19:57.426Z,9.87
2019-04-14T17:23:08.460Z,10.20
2019-04-14T17:26:03.314Z,11.30
2019-04-14T17:28:45.974Z,10.60
2019-04-14T17:31:36.470Z,10.73
2019-04-14T17:34:30.014Z,11.63
2019-04-14T17:37:17.277Z,12.10
2019-04-14T17:40:03.372Z,12.97
2019-04-14T17:42:49.061Z,12.63
2019-04-14T17:45:30.349Z,12.70
2019-04-14T17:48:14.672Z,13.20
2019-04-14T17:51:12.983Z,13.77
2019-04-14T17:53:48.903Z,12.77
2019-04-14T17:56:35.039Z,14.50
2019-04-14T17:59:14.775Z,14.70
2019-04-14T18:02:03.962Z,14.23
2019-04-14T18:05:05.495Z,15.43
2019-04-14T18:07:45.683Z,14.60
2019-04-14T18:10:37.709Z,14.27
2019-04-14T18:13:20.763Z,15.57
2019-04-14T18:16:20.631Z,14.57
2019-04-14T18:19:12.112Z,15.73
2019-04-14T18:21:47.633Z,16.17
2019-04-14T18:24:19.253Z,16.27
2019-04-14T18:26:50.365Z,15.03
2019-04-14T18:29:49.325Z,15.10
2019-04-14T18:32:25.076Z,18.53
2019-04-14T18:35:07.204Z,17.60
2019-04-14T18:38:14.933Z,18.57
2019-04-14T18:41:00.360Z,16.93
2019-04-14T18:44:00.648Z,22.40
2019-04-14T18:46:40.916Z,26.77
2019-04-14T18:49:24.756Z,29.17
2019-04-14T18:52:19.152Z,26.87
2019-04-14T18:55:17.458Z,18.83
2019-04-14T18:58:00.024Z,15.60
2019-04-14T19:00:45.654Z,13.87
2019-04-14T19:03:19.211Z,14.33
2019-04-14T19:05:53.676Z,44.27
2019-04-14T19:08:25.372Z,20.00
2019-04-14T19:11:09.059Z,15.70
2019-04-14T19:13:42.193Z,15.47
2019-04-14T19:16:38.185Z,14.33
2019-04-14T19:19:04.175Z,14.07
2019-04-14T19:21:36.065Z,15.00
2019-04-14T19:24:07.651Z,14.60
2019-04-14T19:26:40.820Z,13.53
2019-04-14T19:29:17.175Z,12.90
2019-04-14T19:31:51.786Z,14.53
2019-04-14T19:34:25.549Z,14.60
2019-04-14T19:36:56.857Z,14.87
2019-04-14T19:39:28.698Z,13.53
2019-04-14T19:42:02.912Z,14.60
2019-04-14T19:44:34.744Z,14.07
2019-04-14T19:47:06.469Z,13.87
2019-04-14T19:49:38.233Z,14.20
2019-04-14T19:52:11.951Z,14.60
2019-04-14T19:54:45.386Z,14.03
2019-04-14T19:57:21.175Z,13.83
2019-04-14T19:59:59.732Z,14.20
2019-04-14T20:02:36.643Z,13.73
2019-04-14T20:05:10.447Z,14.07
2019-04-14T20:07:42.671Z,13.43
2019-04-14T20:10:14.547Z,13.37
2019-04-14T20:12:48.013Z,13.87
2019-04-14T20:15:25.442Z,13.63
2019-04-14T20:18:19.616Z,13.00
2019-04-14T20:21:10.135Z,13.90
2019-04-14T20:23:54.505Z,13.87
2019-04-14T20:26:33.421Z,14.33
2019-04-14T20:29:17.201Z,14.30
2019-04-14T20:32:08.412Z,14.83
2019-04-14T20:34:39.848Z,13.73
2019-04-14T20:37:12.197Z,15.10
2019-04-14T20:39:45.751Z,14.77
2019-04-14T20:42:18.769Z,16.07
2019-04-14T20:44:51.876Z,14.67
2019-04-14T20:47:38.318Z,15.70
2019-04-14T20:50:08.336Z,16.50
2019-04-14T20:52:40.073Z,16.50
2019-04-14T20:55:11.888Z,17.30
2019-04-14T20:57:44.449Z,15.90
2019-04-14T21:00:15.612Z,15.83
2019-04-14T21:03:27.365Z,15.70
2019-04-14T21:06:29.681Z,16.23
2019-04-14T21:09:12.982Z,17.40
2019-04-14T21:12:02.171Z,16.43
2019-04-14T21:14:45.507Z,15.83
2019-04-14T21:17:28.128Z,17.33
2019-04-14T21:20:19.397Z,17.10
2019-04-14T21:23:18.363Z,15.70
2019-04-14T21:26:11.106Z,16.23
2019-04-14T21:29:00.312Z,17.20
2019-04-14T21:31:43.874Z,15.50
2019-04-14T21:34:27.197Z,17.40
2019-04-14T21:37:16.693Z,17.60
2019-04-14T21:39:52.185Z,16.97
2019-04-14T21:42:34.808Z,18.33
2019-04-14T21:45:13.050Z,16.23
2019-04-14T21:47:46.199Z,17.27
2019-04-14T21:50:16.655Z,17.97
2019-04-14T21:52:49.801Z,17.17
2019-04-14T21:55:23.427Z,18.03
2019-04-14T21:58:19.429Z,17.40
2019-04-14T22:01:48.910Z,17.80
2019-04-14T22:04:38.234Z,17.67
2019-04-14T22:07:30.502Z,18.30
2019-04-14T22:10:13.301Z,18.40
2019-04-14T22:12:45.615Z,18.80
2019-04-14T22:15:17.773Z,18.03
2019-04-14T22:17:51.489Z,18.93
2019-04-14T22:20:22.557Z,18.23
2019-04-14T22:22:58.342Z,18.50
2019-04-14T22:25:29.744Z,17.43
2019-04-14T22:28:00.228Z,18.50
2019-04-14T22:30:31.419Z,19.60
2019-04-14T22:33:05.943Z,18.97
2019-04-14T22:35:37.869Z,18.63
2019-04-14T22:38:09.289Z,17.47
2019-04-14T22:40:40.555Z,18.47
2019-04-14T22:43:11.593Z,18.70
2019-04-14T22:45:42.517Z,18.40
2019-04-14T22:48:14.389Z,17.67
2019-04-14T22:50:45.879Z,17.17
2019-04-14T22:53:16.261Z,20.23
2019-04-14T22:55:49.724Z,18.97
2019-04-14T22:58:21.959Z,18.20
2019-04-14T23:01:10.826Z,18.13
2019-04-14T23:03:52.170Z,18.70
2019-04-14T23:06:39.978Z,19.07
2019-04-14T23:09:30.601Z,19.27
2019-04-14T23:12:18.798Z,19.37
2019-04-14T23:14:54.012Z,19.17
2019-04-14T23:17:50.999Z,18.27
2019-04-14T23:20:39.974Z,17.60
2019-04-14T23:23:29.540Z,18.23
2019-04-14T23:26:00.887Z,20.10
2019-04-14T23:28:31.929Z,18.00
2019-04-14T23:31:02.332Z,19.83
2019-04-14T23:33:32.947Z,19.20
2019-04-14T23:36:04.410Z,19.23
2019-04-14T23:38:36.838Z,19.40
2019-04-14T23:41:08.562Z,18.97
2019-04-14T23:43:39.403Z,19.40
2019-04-14T23:46:09.351Z,19.13
2019-04-14T23:48:41.230Z,17.37
2019-04-14T23:51:11.463Z,19.13
2019-04-14T23:53:42.327Z,18.33
2019-04-14T23:56:13.907Z,18.87
2019-04-14T23:58:44.685Z,20.37
